Time;durP1;ratioP1;P1;durP2;ratioP2;P2;SDS_P1;SDS_P2;PMS_P1;PMS_P2;Temp;Humidity;BMP_temperature;BMP_pressure;BME280_temperature;BME280_humidity;BME280_pressure;Samples;Min_cycle;Max_cycle;Signal;HPM_P1;HPM_P2
2021/06/27 00:01:34;;;;;;;11.23;5.47;;;;;;;;;;5005768;28;20461;-94
2021/06/27 00:04:01;;;;;;;7.80;5.13;;;;;;;;;;5012008;28;20460;-93
2021/06/27 00:06:27;;;;;;;11.43;5.10;;;;;;;;;;4997902;28;20488;-94
2021/06/27 00:08:54;;;;;;;8.60;5.00;;;;;;;;;;5008111;28;21173;-93
2021/06/27 00:11:23;;;;;;;10.13;5.23;;;;;;;;;;5008422;28;20456;-92
2021/06/27 00:13:51;;;;;;;10.10;4.70;;;;;;;;;;4992818;28;20498;-93
2021/06/27 00:16:18;;;;;;;9.50;5.43;;;;;;;;;;5018750;28;20510;-94
2021/06/27 00:18:46;;;;;;;9.03;4.20;;;;;;;;;;5007273;28;20454;-93
2021/06/27 00:21:13;;;;;;;8.30;3.90;;;;;;;;;;5019362;28;20454;-92
2021/06/27 00:23:41;;;;;;;13.23;4.77;;;;;;;;;;5011908;28;20485;-93
2021/06/27 00:26:09;;;;;;;10.80;5.07;;;;;;;;;;5017687;28;20460;-93
2021/06/27 00:28:35;;;;;;;12.50;5.60;;;;;;;;;;5018512;28;20465;-93
2021/06/27 00:31:03;;;;;;;6.60;4.00;;;;;;;;;;5023133;28;20444;-94
2021/06/27 00:33:30;;;;;;;7.43;4.77;;;;;;;;;;5018798;28;21464;-92
2021/06/27 00:35:58;;;;;;;8.10;4.23;;;;;;;;;;5024301;28;20457;-92
2021/06/27 00:38:25;;;;;;;12.80;5.23;;;;;;;;;;5023301;28;20489;-92
2021/06/27 00:40:51;;;;;;;7.03;4.70;;;;;;;;;;5001617;28;21171;-91
2021/06/27 00:43:18;;;;;;;9.57;5.47;;;;;;;;;;5003624;28;20454;-91
2021/06/27 00:45:44;;;;;;;8.77;5.13;;;;;;;;;;5014359;28;21713;-91
2021/06/27 00:48:11;;;;;;;12.10;5.13;;;;;;;;;;5022333;28;20452;-91
2021/06/27 00:50:38;;;;;;;11.77;5.47;;;;;;;;;;5016498;28;20464;-92
2021/06/27 00:53:08;;;;;;;8.40;4.80;;;;;;;;;;5022660;28;20536;-92
2021/06/27 00:55:35;;;;;;;9.47;4.80;;;;;;;;;;5016102;28;20515;-92
2021/06/27 00:58:02;;;;;;;14.27;5.77;;;;;;;;;;5022982;28;20504;-92
2021/06/27 01:00:29;;;;;;;9.40;5.93;;;;;;;;;;5017862;28;20481;-93
2021/06/27 01:02:56;;;;;;;13.00;7.73;;;;;;;;;;5023379;28;20475;-93
2021/06/27 01:05:23;;;;;;;13.37;6.10;;;;;;;;;;5012887;28;20489;-93
2021/06/27 01:07:50;;;;;;;13.83;6.80;;;;;;;;;;5022455;28;20445;-93
2021/06/27 01:10:18;;;;;;;12.57;7.60;;;;;;;;;;5016218;28;20515;-93
2021/06/27 01:12:45;;;;;;;13.80;6.30;;;;;;;;;;5023826;28;20456;-93
2021/06/27 01:15:12;;;;;;;11.63;7.10;;;;;;;;;;5014366;28;20458;-92
2021/06/27 01:17:40;;;;;;;11.63;5.60;;;;;;;;;;5021179;28;20515;-93
2021/06/27 01:20:08;;;;;;;11.33;6.33;;;;;;;;;;5020230;28;20491;-93
2021/06/27 01:22:36;;;;;;;12.83;5.67;;;;;;;;;;5022768;28;20458;-93
2021/06/27 01:25:02;;;;;;;10.53;5.57;;;;;;;;;;5023186;28;20452;-93
2021/06/27 01:27:29;;;;;;;14.13;7.00;;;;;;;;;;5014619;28;20470;-93
2021/06/27 01:29:55;;;;;;;12.47;5.50;;;;;;;;;;5007307;28;20461;-93
2021/06/27 01:32:22;;;;;;;8.23;5.03;;;;;;;;;;5000433;28;20462;-93
2021/06/27 01:34:48;;;;;;;11.90;6.07;;;;;;;;;;5003876;28;20495;-93
2021/06/27 01:37:15;;;;;;;13.47;6.20;;;;;;;;;;5008007;28;20507;-93
2021/06/27 01:39:43;;;;;;;13.13;5.13;;;;;;;;;;5022686;28;20514;-93
2021/06/27 01:42:09;;;;;;;7.33;5.30;;;;;;;;;;5004946;28;20465;-93
2021/06/27 01:44:36;;;;;;;8.17;5.47;;;;;;;;;;5022279;28;20948;-93
2021/06/27 01:47:03;;;;;;;14.43;6.13;;;;;;;;;;5012211;28;20460;-94
2021/06/27 01:49:29;;;;;;;15.57;6.30;;;;;;;;;;5020745;28;20452;-93
2021/06/27 01:51:56;;;;;;;10.27;5.53;;;;;;;;;;5012426;28;20481;-94
2021/06/27 01:54:22;;;;;;;9.07;5.23;;;;;;;;;;5003055;28;20489;-93
2021/06/27 01:56:50;;;;;;;11.40;6.60;;;;;;;;;;5000105;28;20494;-94
2021/06/27 01:59:17;;;;;;;11.83;6.80;;;;;;;;;;5018061;28;20460;-94
2021/06/27 02:01:43;;;;;;;11.87;5.80;;;;;;;;;;5020531;28;20453;-95
2021/06/27 02:04:10;;;;;;;12.40;6.47;;;;;;;;;;5015007;28;20451;-94
2021/06/27 02:06:38;;;;;;;9.80;5.90;;;;;;;;;;5008362;28;20488;-95
2021/06/27 02:09:06;;;;;;;12.97;5.90;;;;;;;;;;5009070;28;20459;-96
2021/06/27 02:11:33;;;;;;;13.27;5.80;;;;;;;;;;5021449;28;20465;-94
2021/06/27 02:14:01;;;;;;;9.20;5.13;;;;;;;;;;5019239;28;21015;-95
2021/06/27 02:16:27;;;;;;;11.53;5.60;;;;;;;;;;5022440;28;20449;-94
2021/06/27 02:18:54;;;;;;;13.37;5.00;;;;;;;;;;5018584;28;20455;-94
2021/06/27 02:21:22;;;;;;;10.60;4.83;;;;;;;;;;5022881;28;21297;-92
2021/06/27 02:23:49;;;;;;;12.20;6.13;;;;;;;;;;5016944;28;20468;-93
2021/06/27 02:26:15;;;;;;;10.80;5.50;;;;;;;;;;5020785;28;21215;-93
2021/06/27 02:28:42;;;;;;;15.83;6.13;;;;;;;;;;5017831;28;20491;-95
2021/06/27 02:31:10;;;;;;;7.40;4.53;;;;;;;;;;5021685;28;20456;-95
2021/06/27 02:33:36;;;;;;;8.87;4.10;;;;;;;;;;5000438;28;20490;-93
2021/06/27 02:36:03;;;;;;;6.30;4.40;;;;;;;;;;5008947;28;20459;-93
2021/06/27 02:38:30;;;;;;;8.00;4.57;;;;;;;;;;5016733;28;20469;-96
2021/06/27 02:40:56;;;;;;;8.47;4.70;;;;;;;;;;5022420;28;20482;-94
2021/06/27 02:43:23;;;;;;;13.10;4.30;;;;;;;;;;5004894;28;20469;-93
2021/06/27 02:45:50;;;;;;;14.53;5.90;;;;;;;;;;5017961;28;20459;-94
2021/06/27 02:48:18;;;;;;;9.10;4.80;;;;;;;;;;5002584;28;20499;-96
2021/06/27 02:50:45;;;;;;;6.60;4.67;;;;;;;;;;5010331;28;20456;-94
2021/06/27 02:53:11;;;;;;;7.27;4.30;;;;;;;;;;5003296;28;20463;-94
2021/06/27 02:55:38;;;;;;;14.23;5.23;;;;;;;;;;5008090;28;20461;-95
2021/06/27 02:58:05;;;;;;;7.10;4.60;;;;;;;;;;5012266;28;20487;-95
2021/06/27 03:00:31;;;;;;;7.33;4.23;;;;;;;;;;5007968;28;20456;-94
2021/06/27 03:02:58;;;;;;;9.87;4.13;;;;;;;;;;5009048;28;20447;-95
2021/06/27 03:05:26;;;;;;;9.43;5.87;;;;;;;;;;5016672;28;20472;-95
2021/06/27 03:07:53;;;;;;;10.17;4.43;;;;;;;;;;5025186;28;20458;-95
2021/06/27 03:10:20;;;;;;;12.30;4.97;;;;;;;;;;5017129;28;20452;-95
2021/06/27 03:12:48;;;;;;;12.70;5.17;;;;;;;;;;5019761;28;20468;-94
2021/06/27 03:15:15;;;;;;;10.83;4.70;;;;;;;;;;5002732;28;20488;-94
2021/06/27 03:17:42;;;;;;;11.57;3.80;;;;;;;;;;5024774;28;20444;-93
2021/06/27 03:20:10;;;;;;;9.03;3.63;;;;;;;;;;5017773;28;20480;-94
2021/06/27 03:22:38;;;;;;;11.40;4.20;;;;;;;;;;5022561;28;20456;-94
2021/06/27 03:25:05;;;;;;;7.20;3.90;;;;;;;;;;5020243;28;20494;-94
2021/06/27 03:27:31;;;;;;;5.93;4.23;;;;;;;;;;5006088;28;20487;-94
2021/06/27 03:29:58;;;;;;;7.20;4.20;;;;;;;;;;5005759;28;20457;-94
2021/06/27 03:32:25;;;;;;;11.63;4.10;;;;;;;;;;5013740;28;20451;-94
2021/06/27 03:34:51;;;;;;;9.17;5.23;;;;;;;;;;5025255;28;20549;-94
2021/06/27 03:37:18;;;;;;;10.10;5.80;;;;;;;;;;5013806;28;20448;-92
2021/06/27 03:39:46;;;;;;;9.87;6.50;;;;;;;;;;5025050;28;20447;-94
2021/06/27 03:42:12;;;;;;;10.23;5.97;;;;;;;;;;5007813;28;20548;-93
2021/06/27 03:44:39;;;;;;;12.33;6.23;;;;;;;;;;5004674;28;20494;-94
2021/06/27 03:47:05;;;;;;;11.67;5.80;;;;;;;;;;5004351;28;20460;-94
2021/06/27 03:49:32;;;;;;;9.97;5.90;;;;;;;;;;5023221;28;20487;-94
2021/06/27 03:51:58;;;;;;;10.70;6.60;;;;;;;;;;5012035;28;20542;-94
2021/06/27 03:54:25;;;;;;;12.50;6.47;;;;;;;;;;4997843;28;20518;-94
2021/06/27 03:56:53;;;;;;;8.90;6.07;;;;;;;;;;5002254;28;20484;-94
2021/06/27 03:59:19;;;;;;;18.63;7.27;;;;;;;;;;5021675;28;20447;-94
2021/06/27 04:01:46;;;;;;;14.23;7.70;;;;;;;;;;4993448;28;20464;-93
2021/06/27 04:04:12;;;;;;;12.77;7.47;;;;;;;;;;5019252;28;20452;-94
2021/06/27 04:06:39;;;;;;;10.80;7.00;;;;;;;;;;5013338;28;20450;-92
2021/06/27 04:09:05;;;;;;;11.37;7.40;;;;;;;;;;5024425;28;20460;-94
2021/06/27 04:11:32;;;;;;;10.17;7.33;;;;;;;;;;5024581;28;20466;-93
2021/06/27 04:14:00;;;;;;;9.23;6.77;;;;;;;;;;5004058;28;20488;-94
2021/06/27 04:16:28;;;;;;;12.83;7.10;;;;;;;;;;5014361;28;20458;-95
2021/06/27 04:18:55;;;;;;;16.73;10.40;;;;;;;;;;5005271;28;20496;-95
2021/06/27 04:21:22;;;;;;;20.10;9.60;;;;;;;;;;5016950;28;20461;-92
2021/06/27 04:23:48;;;;;;;19.07;11.67;;;;;;;;;;5029260;28;20445;-95
2021/06/27 04:26:15;;;;;;;20.97;12.90;;;;;;;;;;5014683;28;20449;-95
2021/06/27 04:28:41;;;;;;;22.73;13.63;;;;;;;;;;5015670;28;20452;-95
2021/06/27 04:31:09;;;;;;;23.37;13.23;;;;;;;;;;5021563;28;20453;-94
2021/06/27 04:33:37;;;;;;;27.27;13.30;;;;;;;;;;5017024;28;20469;-94
2021/06/27 04:36:04;;;;;;;24.77;13.60;;;;;;;;;;5023219;28;20492;-92
2021/06/27 04:38:31;;;;;;;23.23;13.80;;;;;;;;;;5004518;28;20463;-93
2021/06/27 04:40:57;;;;;;;24.03;12.40;;;;;;;;;;5019179;28;20450;-95
2021/06/27 04:43:24;;;;;;;24.67;12.80;;;;;;;;;;5002175;28;20489;-94
2021/06/27 04:45:51;;;;;;;24.00;11.87;;;;;;;;;;5024162;28;20464;-95
2021/06/27 04:48:19;;;;;;;19.30;12.70;;;;;;;;;;5019187;28;20515;-92
2021/06/27 04:50:46;;;;;;;18.73;11.13;;;;;;;;;;5019439;28;20453;-95
2021/06/27 04:53:13;;;;;;;13.90;9.60;;;;;;;;;;5011029;28;20458;-93
2021/06/27 04:55:40;;;;;;;14.20;9.57;;;;;;;;;;4999795;28;20525;-94
2021/06/27 04:58:07;;;;;;;14.87;9.53;;;;;;;;;;4992560;28;20486;-94
2021/06/27 05:00:33;;;;;;;14.80;9.37;;;;;;;;;;4994377;28;20468;-94
2021/06/27 05:03:01;;;;;;;13.20;8.83;;;;;;;;;;5005579;28;20455;-95
2021/06/27 05:05:29;;;;;;;18.50;10.03;;;;;;;;;;5001245;28;20499;-94
2021/06/27 05:07:56;;;;;;;14.83;9.67;;;;;;;;;;4993424;28;20471;-93
2021/06/27 05:10:22;;;;;;;18.13;9.70;;;;;;;;;;4988522;28;20848;-94
2021/06/27 05:12:51;;;;;;;15.60;10.63;;;;;;;;;;5001051;28;20452;-96
2021/06/27 05:15:17;;;;;;;13.50;10.20;;;;;;;;;;5008991;28;20495;-96
2021/06/27 05:17:44;;;;;;;18.40;11.03;;;;;;;;;;5026369;28;20452;-96
2021/06/27 05:20:11;;;;;;;17.70;10.17;;;;;;;;;;5004216;28;20454;-96
2021/06/27 05:22:42;;;;;;;19.13;10.50;;;;;;;;;;5025332;28;20473;-96
2021/06/27 05:25:09;;;;;;;17.23;10.23;;;;;;;;;;5011644;28;20545;-96
2021/06/27 05:27:39;;;;;;;16.63;9.40;;;;;;;;;;5008089;28;20456;-96
2021/06/27 05:30:06;;;;;;;16.73;9.67;;;;;;;;;;5010272;28;20532;-96
2021/06/27 05:37:57;;;;;;;16.20;10.60;;;;;;;;;;5002812;23;20501;-96
2021/06/27 05:40:39;;;;;;;17.27;10.07;;;;;;;;;;4955589;29;20436;-96
2021/06/27 05:43:25;;;;;;;14.20;10.50;;;;;;;;;;5362509;23;20525;-96
2021/06/27 05:46:21;;;;;;;18.83;11.20;;;;;;;;;;4970795;29;20489;-96
2021/06/27 05:54:36;;;;;;;15.93;10.80;;;;;;;;;;4999061;23;20499;-95
2021/06/27 06:02:21;;;;;;;17.53;12.30;;;;;;;;;;5022409;23;20587;-96
2021/06/27 06:04:58;;;;;;;19.50;12.47;;;;;;;;;;5011935;23;20494;-96
2021/06/27 06:10:11;;;;;;;15.23;11.60;;;;;;;;;;5279315;23;20485;-96
2021/06/27 06:26:55;;;;;;;24.90;13.20;;;;;;;;;;5315304;23;20454;-96
2021/06/27 06:32:06;;;;;;;17.90;11.83;;;;;;;;;;4960209;29;20511;-96
2021/06/27 06:34:41;;;;;;;21.80;12.73;;;;;;;;;;4960030;29;20557;-96
2021/06/27 07:01:58;;;;;;;15.60;10.67;;;;;;;;;;5542638;23;20476;-96
2021/06/27 07:07:01;;;;;;;14.70;10.00;;;;;;;;;;5172487;23;20464;-95
2021/06/27 07:12:14;;;;;;;18.20;11.33;;;;;;;;;;4507999;26;20487;-96
2021/06/27 07:20:19;;;;;;;15.50;9.93;;;;;;;;;;5024785;23;20493;-96
2021/06/27 07:22:47;;;;;;;16.07;9.43;;;;;;;;;;4983194;28;20434;-96
2021/06/27 07:27:49;;;;;;;16.90;9.50;;;;;;;;;;4202785;26;20522;-95
2021/06/27 07:35:38;;;;;;;13.67;8.53;;;;;;;;;;4921489;28;20280;-96
2021/06/27 07:43:33;;;;;;;12.97;8.93;;;;;;;;;;4948388;28;20530;-96
2021/06/27 07:51:23;;;;;;;13.93;8.10;;;;;;;;;;4951255;29;20467;-96
2021/06/27 08:02:38;;;;;;;18.57;8.00;;;;;;;;;;4377169;23;20523;-95
2021/06/27 08:05:05;;;;;;;16.40;8.67;;;;;;;;;;4963436;29;20482;-96
2021/06/27 08:10:17;;;;;;;12.37;7.77;;;;;;;;;;5577820;23;20523;-96
2021/06/27 08:12:54;;;;;;;20.90;9.37;;;;;;;;;;4971638;29;20547;-96
